createdAt,value
2022-08-08T00:00:53.209Z,0.30
2022-08-08T00:02:55.536Z,0.40
2022-08-08T00:05:43.983Z,0.43
2022-08-08T00:08:49.195Z,0.50
2022-08-08T00:12:03.271Z,0.30
2022-08-08T00:14:59.234Z,0.40
2022-08-08T00:18:02.777Z,0.68
2022-08-08T00:20:42.691Z,0.50
2022-08-08T00:23:16.427Z,0.50
2022-08-08T00:28:35.724Z,0.30
2022-08-08T00:32:28.854Z,0.60
2022-08-08T00:35:03.936Z,0.60
2022-08-08T00:37:48.193Z,0.40
2022-08-08T00:41:12.008Z,0.40
2022-08-08T00:43:20.101Z,0.30
2022-08-08T00:46:16.156Z,0.35
2022-08-08T00:49:22.430Z,0.60
2022-08-08T00:51:57.429Z,0.40
2022-08-08T00:54:34.315Z,0.77
2022-08-08T00:57:23.332Z,0.50
2022-08-08T01:00:10.505Z,0.30
2022-08-08T01:04:02.594Z,0.57
2022-08-08T01:06:14.022Z,0.60
2022-08-08T01:08:53.370Z,0.98
2022-08-08T01:11:54.319Z,0.47
2022-08-08T01:14:57.444Z,0.52
2022-08-08T01:17:53.159Z,0.30
2022-08-08T01:20:44.774Z,0.30
2022-08-08T01:24:06.347Z,0.50
2022-08-08T01:26:32.553Z,0.65
2022-08-08T01:29:02.369Z,0.50
2022-08-08T01:32:16.269Z,0.30
2022-08-08T01:34:56.508Z,0.50
2022-08-08T01:37:58.234Z,0.50
2022-08-08T01:40:46.838Z,0.57
2022-08-08T01:43:17.496Z,0.50
2022-08-08T01:45:57.362Z,0.60
2022-08-08T01:48:38.451Z,0.80
2022-08-08T01:51:48.636Z,0.50
2022-08-08T01:55:19.646Z,0.50
2022-08-08T01:58:10.979Z,0.50
2022-08-08T02:01:08.975Z,0.40
2022-08-08T02:04:05.844Z,0.50
2022-08-08T02:06:52.422Z,0.50
2022-08-08T02:10:02.274Z,0.45
2022-08-08T02:12:25.316Z,0.60
2022-08-08T02:15:03.051Z,0.52
2022-08-08T02:18:10.276Z,0.45
2022-08-08T02:21:20.548Z,0.43
2022-08-08T02:24:19.934Z,0.50
2022-08-08T02:27:03.566Z,0.75
2022-08-08T02:30:01.950Z,0.52
2022-08-08T02:33:03.506Z,0.75
2022-08-08T02:36:04.084Z,0.60
2022-08-08T02:38:29.018Z,0.57
2022-08-08T02:41:59.183Z,0.35
2022-08-08T02:44:42.758Z,0.45
2022-08-08T02:47:52.015Z,0.85
2022-08-08T02:50:55.543Z,0.57
2022-08-08T02:53:47.389Z,0.90
2022-08-08T02:56:50.848Z,0.65
2022-08-08T02:59:56.995Z,0.50
2022-08-08T03:02:30.330Z,0.50
2022-08-08T03:05:17.779Z,0.57
2022-08-08T03:08:02.194Z,0.60
2022-08-08T03:11:31.845Z,0.70
2022-08-08T03:15:58.739Z,0.60
2022-08-08T03:17:59.716Z,0.75
2022-08-08T03:20:51.844Z,0.60
2022-08-08T03:23:56.498Z,0.73
2022-08-08T03:26:25.577Z,0.60
2022-08-08T03:29:03.340Z,0.80
2022-08-08T03:32:06.639Z,0.55
2022-08-08T03:34:39.824Z,0.73
2022-08-08T03:37:59.505Z,0.50
2022-08-08T03:40:06.908Z,0.55
2022-08-08T03:42:54.436Z,0.90
2022-08-08T03:46:06.680Z,0.70
2022-08-08T03:48:21.128Z,0.50
2022-08-08T03:51:06.647Z,0.60
2022-08-08T03:53:42.570Z,0.68
2022-08-08T03:56:31.888Z,0.60
2022-08-08T03:59:00.889Z,0.52
2022-08-08T04:02:32.867Z,0.65
2022-08-08T04:04:30.630Z,0.70
2022-08-08T04:07:01.292Z,1.15
2022-08-08T04:09:59.339Z,0.68
2022-08-08T04:12:22.782Z,0.52
2022-08-08T04:14:51.043Z,0.70
2022-08-08T04:17:46.707Z,0.73
2022-08-08T04:20:08.327Z,0.75
2022-08-08T04:22:37.072Z,0.60
2022-08-08T04:25:07.973Z,0.50
2022-08-08T04:28:02.692Z,1.35
2022-08-08T04:30:24.631Z,0.70
2022-08-08T04:32:53.544Z,0.63
2022-08-08T04:35:23.704Z,0.90
2022-08-08T04:37:53.619Z,0.73
2022-08-08T04:40:25.880Z,0.80
2022-08-08T04:43:00.914Z,1.08
2022-08-08T04:45:39.278Z,1.10
2022-08-08T04:48:08.339Z,0.70
2022-08-08T04:50:40.342Z,0.63
2022-08-08T04:54:27.391Z,0.82
2022-08-08T04:56:03.389Z,0.63
2022-08-08T04:58:33.438Z,1.08
2022-08-08T05:01:05.839Z,1.00
2022-08-08T05:04:09.189Z,1.05
2022-08-08T05:06:25.680Z,1.00
2022-08-08T05:08:55.809Z,0.85
2022-08-08T05:11:26.152Z,0.60
2022-08-08T05:14:01.440Z,0.85
2022-08-08T05:16:50.925Z,0.65
2022-08-08T05:20:09.608Z,0.77
2022-08-08T05:22:10.551Z,0.70
2022-08-08T05:27:16.708Z,1.02
2022-08-08T05:29:44.834Z,0.80
2022-08-08T05:32:12.621Z,0.85
2022-08-08T05:34:46.179Z,0.77
2022-08-08T05:37:19.702Z,1.15
2022-08-08T05:39:52.837Z,1.17
2022-08-08T05:42:34.623Z,0.80
2022-08-08T05:45:20.127Z,0.73
2022-08-08T05:48:00.135Z,0.60
2022-08-08T05:50:30.041Z,0.57
2022-08-08T05:53:54.343Z,1.27
2022-08-08T05:56:07.965Z,0.80
2022-08-08T05:58:56.727Z,0.55
2022-08-08T06:01:56.798Z,0.82
2022-08-08T06:04:23.289Z,0.90
2022-08-08T06:06:53.982Z,0.90
2022-08-08T06:10:00.577Z,0.95
2022-08-08T06:12:18.591Z,1.53
2022-08-08T06:14:47.735Z,0.68
2022-08-08T06:17:19.184Z,0.77
2022-08-08T06:19:54.609Z,0.70
2022-08-08T06:22:38.293Z,0.95
2022-08-08T06:25:15.837Z,0.93
2022-08-08T06:27:57.945Z,0.90
2022-08-08T06:30:28.954Z,0.70
2022-08-08T06:33:01.151Z,0.90
2022-08-08T06:36:07.432Z,0.85
2022-08-08T06:38:27.599Z,0.90
2022-08-08T06:41:08.055Z,1.20
2022-08-08T06:43:47.737Z,1.00
2022-08-08T06:46:30.125Z,0.77
2022-08-08T06:48:59.598Z,1.00
2022-08-08T06:51:31.183Z,0.93
2022-08-08T06:54:15.560Z,0.88
2022-08-08T06:56:47.202Z,0.95
2022-08-08T06:59:19.087Z,2.42
2022-08-08T07:02:27.018Z,1.38
2022-08-08T07:05:07.521Z,0.90
2022-08-08T07:08:07.765Z,1.23
2022-08-08T07:10:47.541Z,1.45
2022-08-08T07:13:18.468Z,1.23
2022-08-08T07:16:04.753Z,1.38
2022-08-08T07:19:01.016Z,1.58
2022-08-08T07:22:00.503Z,1.10
2022-08-08T07:24:47.948Z,2.83
2022-08-08T07:27:17.143Z,1.43
2022-08-08T07:30:02.020Z,1.63
2022-08-08T07:32:36.842Z,1.50
2022-08-08T07:35:08.781Z,0.90
2022-08-08T07:37:49.599Z,1.00
2022-08-08T07:40:48.470Z,1.27
2022-08-08T07:43:23.198Z,1.50
2022-08-08T07:46:23.585Z,0.75
2022-08-08T07:48:54.948Z,1.15
2022-08-08T07:51:45.605Z,1.15
2022-08-08T07:54:33.305Z,0.70
2022-08-08T07:57:19.995Z,0.50
2022-08-08T08:00:02.805Z,0.82
2022-08-08T08:02:39.132Z,0.85
2022-08-08T08:05:26.314Z,0.60
2022-08-08T08:08:15.254Z,0.40
2022-08-08T08:10:55.413Z,0.65
2022-08-08T08:14:05.911Z,0.77
2022-08-08T08:16:26.195Z,0.68
2022-08-08T08:19:01.763Z,0.40
2022-08-08T08:21:52.893Z,0.50
2022-08-08T08:24:51.889Z,0.40
2022-08-08T08:27:22.020Z,0.50
2022-08-08T08:29:53.897Z,0.63
2022-08-08T08:32:35.773Z,0.40
2022-08-08T08:37:59.202Z,0.45
2022-08-08T08:40:25.048Z,0.32
2022-08-08T08:42:54.572Z,0.50
2022-08-08T08:45:23.909Z,1.20
2022-08-08T08:48:01.177Z,0.40
2022-08-08T08:50:35.154Z,0.30
2022-08-08T08:53:53.993Z,0.35
2022-08-08T08:56:06.911Z,0.30
2022-08-08T08:58:50.197Z,0.50
2022-08-08T09:01:35.423Z,0.30
2022-08-08T09:04:31.516Z,0.40
2022-08-08T09:07:12.870Z,0.55
2022-08-08T09:09:48.331Z,0.20
2022-08-08T09:12:27.551Z,0.28
2022-08-08T09:14:57.183Z,0.30
2022-08-08T09:17:40.999Z,0.25
2022-08-08T09:21:56.926Z,0.30
2022-08-08T09:23:01.253Z,0.10
2022-08-08T09:25:47.502Z,0.30
2022-08-08T09:28:35.676Z,0.35
2022-08-08T09:31:15.496Z,0.20
2022-08-08T09:34:15.553Z,0.30
2022-08-08T09:36:40.236Z,0.30
2022-08-08T09:39:21.597Z,0.45
2022-08-08T09:42:20.019Z,0.20
2022-08-08T09:45:15.857Z,0.30
2022-08-08T09:48:09.866Z,0.30
2022-08-08T09:50:43.890Z,0.20
2022-08-08T09:53:32.014Z,0.30
2022-08-08T09:56:12.650Z,0.20
2022-08-08T09:58:57.865Z,0.35
2022-08-08T10:02:00.202Z,0.32
2022-08-08T10:04:22.355Z,0.10
2022-08-08T10:07:07.225Z,0.30
2022-08-08T10:09:58.939Z,0.20
2022-08-08T10:12:54.442Z,0.47
2022-08-08T10:15:36.887Z,0.38
2022-08-08T10:18:10.637Z,1.05
2022-08-08T10:20:58.303Z,0.10
2022-08-08T10:23:50.836Z,0.30
2022-08-08T10:26:30.586Z,0.20
2022-08-08T10:29:57.096Z,0.20
2022-08-08T10:32:32.286Z,0.40
2022-08-08T10:35:11.880Z,0.30
2022-08-08T10:40:30.802Z,0.10
2022-08-08T10:43:05.161Z,0.30
2022-08-08T10:45:57.269Z,0.30
2022-08-08T10:48:37.581Z,0.25
2022-08-08T10:51:51.029Z,0.40
2022-08-08T10:54:25.248Z,0.47
2022-08-08T10:56:58.380Z,0.68
2022-08-08T10:59:30.968Z,0.40
2022-08-08T11:01:59.261Z,0.40
2022-08-08T11:04:29.642Z,0.20
2022-08-08T11:07:06.796Z,0.38
2022-08-08T11:09:34.635Z,0.20
2022-08-08T11:12:13.249Z,0.90
2022-08-08T11:14:53.394Z,0.32
2022-08-08T11:18:00.211Z,0.40
2022-08-08T11:20:13.737Z,0.20
2022-08-08T11:22:41.982Z,0.40
2022-08-08T11:25:13.798Z,0.40
2022-08-08T11:27:42.578Z,0.38
2022-08-08T11:30:24.047Z,1.83
2022-08-08T11:32:58.244Z,1.70
2022-08-08T11:35:38.236Z,1.05
2022-08-08T11:38:35.058Z,0.40
2022-08-08T11:40:57.325Z,0.95
2022-08-08T11:43:38.792Z,1.55
2022-08-08T11:46:18.187Z,0.82
2022-08-08T11:48:47.216Z,0.45
2022-08-08T11:51:38.245Z,0.20
2022-08-08T11:54:27.139Z,0.60
2022-08-08T11:56:57.950Z,0.40
2022-08-08T12:00:00.553Z,1.35
2022-08-08T12:02:40.085Z,0.32
2022-08-08T12:05:12.339Z,0.38
2022-08-08T12:07:52.973Z,0.32
2022-08-08T12:10:22.756Z,0.30
2022-08-08T12:13:00.035Z,0.47
2022-08-08T12:15:42.613Z,0.70
2022-08-08T12:18:20.607Z,0.80
2022-08-08T12:20:50.684Z,0.47
2022-08-08T12:23:43.663Z,0.60
2022-08-08T12:26:27.336Z,0.60
2022-08-08T12:29:02.764Z,0.52
2022-08-08T12:31:39.020Z,0.30
2022-08-08T12:34:36.420Z,0.32
2022-08-08T12:37:08.389Z,0.40
2022-08-08T12:40:00.895Z,0.40
2022-08-08T12:42:26.452Z,0.60
2022-08-08T12:45:57.888Z,0.47
2022-08-08T12:48:09.808Z,0.60
2022-08-08T12:50:48.164Z,0.30
2022-08-08T12:53:37.597Z,0.70
2022-08-08T12:56:19.194Z,0.20
2022-08-08T12:58:54.258Z,0.43
2022-08-08T13:01:36.760Z,0.30
2022-08-08T13:04:24.630Z,0.45
2022-08-08T13:07:17.065Z,0.50
2022-08-08T13:10:05.658Z,1.00
2022-08-08T13:12:46.878Z,0.70
2022-08-08T13:15:19.532Z,0.40
2022-08-08T13:18:08.224Z,0.80
2022-08-08T13:20:44.775Z,0.30
2022-08-08T13:23:41.854Z,1.30
2022-08-08T13:26:18.274Z,0.30
2022-08-08T13:28:48.982Z,0.50
2022-08-08T13:31:17.149Z,0.60
2022-08-08T13:33:47.264Z,0.30
2022-08-08T13:36:26.041Z,1.20
2022-08-08T13:38:54.906Z,1.00
2022-08-08T13:41:28.382Z,0.40
2022-08-08T13:44:07.380Z,1.10
2022-08-08T13:46:38.365Z,0.85
2022-08-08T13:50:36.437Z,0.75
2022-08-08T13:52:07.539Z,0.30
2022-08-08T13:54:40.747Z,0.50
2022-08-08T13:57:14.929Z,2.05
2022-08-08T13:59:48.733Z,1.73
2022-08-08T14:02:21.632Z,0.40
2022-08-08T14:05:09.456Z,0.40
2022-08-08T14:07:49.938Z,0.40
2022-08-08T14:10:33.485Z,1.17
2022-08-08T14:13:10.082Z,0.40
2022-08-08T14:16:04.746Z,0.37
2022-08-08T14:18:57.841Z,0.57
2022-08-08T14:21:49.023Z,0.38
2022-08-08T14:24:34.052Z,0.60
2022-08-08T14:27:01.791Z,0.57
2022-08-08T14:29:39.254Z,0.60
2022-08-08T14:32:12.500Z,0.63
2022-08-08T14:34:42.699Z,0.52
2022-08-08T14:37:12.682Z,0.90
2022-08-08T14:40:06.708Z,0.70
2022-08-08T14:42:55.213Z,0.63
2022-08-08T14:45:47.161Z,0.82
2022-08-08T14:51:04.421Z,0.73
2022-08-08T14:53:55.117Z,0.88
2022-08-08T14:56:25.701Z,0.70
2022-08-08T14:58:54.921Z,0.57
2022-08-08T15:01:37.323Z,0.57
2022-08-08T15:04:10.566Z,1.15
2022-08-08T15:06:39.007Z,0.57
2022-08-08T15:09:07.021Z,0.50
2022-08-08T15:11:39.405Z,0.93
2022-08-08T15:14:14.528Z,0.82
2022-08-08T15:16:44.401Z,0.77
2022-08-08T15:19:11.805Z,0.98
2022-08-08T15:21:44.594Z,0.80
2022-08-08T15:24:13.808Z,0.88
2022-08-08T15:26:43.960Z,0.80
2022-08-08T15:29:22.375Z,0.70
2022-08-08T15:32:19.142Z,0.47
2022-08-08T15:34:38.836Z,0.85
2022-08-08T15:37:07.639Z,0.63
2022-08-08T15:39:38.100Z,0.80
2022-08-08T15:42:10.334Z,0.40
2022-08-08T15:44:42.355Z,0.65
2022-08-08T15:47:16.025Z,0.77
2022-08-08T15:49:48.516Z,0.95
2022-08-08T15:52:17.614Z,0.75
2022-08-08T15:54:47.961Z,0.90
2022-08-08T15:57:19.973Z,1.08
2022-08-08T16:00:10.971Z,0.93
2022-08-08T16:02:50.162Z,0.75
2022-08-08T16:05:20.436Z,1.50
2022-08-08T16:07:52.562Z,0.90
2022-08-08T16:13:15.355Z,0.82
2022-08-08T16:13:32.448Z,0.70
2022-08-08T16:16:09.312Z,0.60
2022-08-08T16:18:56.701Z,0.77
2022-08-08T16:21:31.662Z,1.23
2022-08-08T16:24:02.457Z,0.80
2022-08-08T16:26:34.254Z,0.73
2022-08-08T16:29:07.863Z,1.02
2022-08-08T16:31:37.359Z,1.23
2022-08-08T16:34:04.648Z,0.75
2022-08-08T16:36:33.298Z,0.80
2022-08-08T16:39:09.793Z,0.90
2022-08-08T16:41:51.060Z,0.80
2022-08-08T16:44:27.664Z,1.00
2022-08-08T16:47:40.006Z,0.90
2022-08-08T16:50:15.801Z,0.68
2022-08-08T16:55:06.471Z,1.17
2022-08-08T16:55:55.183Z,0.98
2022-08-08T16:58:26.840Z,1.00
2022-08-08T17:00:58.915Z,0.95
2022-08-08T17:04:00.417Z,0.80
2022-08-08T17:06:17.637Z,0.70
2022-08-08T17:09:00.851Z,0.80
2022-08-08T17:11:48.155Z,0.68
2022-08-08T17:14:19.624Z,1.00
2022-08-08T17:16:51.858Z,0.70
2022-08-08T17:19:29.878Z,1.10
2022-08-08T17:21:57.983Z,1.13
2022-08-08T17:24:30.552Z,0.80
2022-08-08T17:26:59.536Z,1.05
2022-08-08T17:29:27.573Z,0.80
2022-08-08T17:31:57.748Z,1.00
2022-08-08T17:34:53.417Z,1.00
2022-08-08T17:37:13.647Z,1.25
2022-08-08T17:40:04.695Z,1.45
2022-08-08T17:42:28.133Z,0.98
2022-08-08T17:44:57.960Z,1.13
2022-08-08T17:47:28.237Z,1.17
2022-08-08T17:50:06.756Z,1.08
2022-08-08T17:52:35.291Z,0.95
2022-08-08T17:56:03.284Z,1.88
2022-08-08T17:57:52.900Z,1.08
2022-08-08T18:00:30.815Z,1.25
2022-08-08T18:03:08.723Z,1.30
2022-08-08T18:05:44.184Z,1.00
2022-08-08T18:08:24.901Z,1.05
2022-08-08T18:11:16.589Z,1.10
2022-08-08T18:13:46.165Z,1.58
2022-08-08T18:16:20.777Z,0.93
2022-08-08T18:18:56.551Z,1.17
2022-08-08T18:22:00.262Z,1.10
2022-08-08T18:24:21.111Z,1.08
2022-08-08T18:26:54.671Z,1.02
2022-08-08T18:29:33.446Z,1.52
2022-08-08T18:32:04.390Z,1.48
2022-08-08T18:34:33.219Z,1.00
2022-08-08T18:37:06.559Z,1.30
2022-08-08T18:39:41.883Z,1.27
2022-08-08T18:42:15.851Z,1.20
2022-08-08T18:44:54.992Z,1.00
2022-08-08T18:47:25.496Z,0.90
2022-08-08T18:49:57.468Z,1.33
2022-08-08T18:52:26.264Z,1.10
2022-08-08T18:55:00.652Z,1.00
2022-08-08T18:57:41.992Z,2.17
2022-08-08T19:00:15.689Z,1.45
2022-08-08T19:02:55.759Z,1.30
2022-08-08T19:05:31.792Z,1.42
2022-08-08T19:08:25.714Z,1.30
2022-08-08T19:10:58.530Z,1.67
2022-08-08T19:13:53.808Z,1.67
2022-08-08T19:16:15.870Z,1.30
2022-08-08T19:18:54.444Z,1.27
2022-08-08T19:21:30.927Z,1.17
2022-08-08T19:24:01.299Z,1.52
2022-08-08T19:26:34.680Z,1.88
2022-08-08T19:29:02.975Z,1.45
2022-08-08T19:31:35.231Z,1.02
2022-08-08T19:34:35.961Z,1.40
2022-08-08T19:36:58.984Z,2.03
2022-08-08T19:39:30.688Z,1.75
2022-08-08T19:42:06.666Z,1.20
2022-08-08T19:44:45.718Z,1.73
2022-08-08T19:47:14.714Z,1.10
2022-08-08T19:49:59.412Z,1.70
2022-08-08T19:52:35.247Z,1.83
2022-08-08T19:55:11.233Z,1.45
2022-08-08T19:57:43.514Z,2.67
2022-08-08T20:00:29.894Z,1.33
2022-08-08T20:03:14.917Z,2.00
2022-08-08T20:06:16.272Z,2.17
2022-08-08T20:08:36.919Z,1.70
2022-08-08T20:11:03.954Z,1.27
2022-08-08T20:14:31.208Z,1.42
2022-08-08T20:16:19.143Z,1.60
2022-08-08T20:18:52.860Z,1.23
2022-08-08T20:21:23.265Z,2.05
2022-08-08T20:23:57.661Z,1.58
2022-08-08T20:26:29.794Z,1.90
2022-08-08T20:29:04.592Z,1.40
2022-08-08T20:31:47.139Z,1.52
2022-08-08T20:34:29.544Z,1.83
2022-08-08T20:37:00.609Z,1.70
2022-08-08T20:39:39.019Z,1.50
2022-08-08T20:42:09.275Z,1.85
2022-08-08T20:44:37.717Z,2.20
2022-08-08T20:47:05.957Z,2.10
2022-08-08T20:49:50.872Z,2.22
2022-08-08T20:52:24.546Z,2.05
2022-08-08T20:54:51.957Z,1.83
2022-08-08T20:57:21.118Z,1.67
2022-08-08T20:59:48.682Z,1.58
2022-08-08T21:02:25.856Z,1.90
2022-08-08T21:04:57.455Z,1.90
2022-08-08T21:07:47.030Z,2.20
2022-08-08T21:10:15.760Z,1.90
2022-08-08T21:12:44.516Z,1.67
2022-08-08T21:15:16.732Z,2.03
2022-08-08T21:18:00.941Z,2.50
2022-08-08T21:20:34.497Z,2.38
2022-08-08T21:23:05.245Z,1.98
2022-08-08T21:25:36.754Z,1.67
2022-08-08T21:28:15.567Z,2.60
2022-08-08T21:30:49.843Z,1.92
2022-08-08T21:33:20.570Z,1.88
2022-08-08T21:36:13.965Z,1.73
2022-08-08T21:38:35.248Z,2.13
2022-08-08T21:41:02.252Z,2.30
2022-08-08T21:43:34.342Z,1.48
2022-08-08T21:48:54.946Z,1.75
2022-08-08T21:54:22.395Z,1.38
2022-08-08T21:54:31.360Z,2.20
2022-08-08T21:57:08.134Z,1.92
2022-08-08T22:00:03.310Z,1.60
2022-08-08T22:02:25.032Z,1.90
2022-08-08T22:04:55.979Z,1.80
2022-08-08T22:07:34.510Z,1.60
2022-08-08T22:10:18.519Z,1.85
2022-08-08T22:13:18.999Z,1.52
2022-08-08T22:15:59.641Z,1.75
2022-08-08T22:18:34.331Z,1.75
2022-08-08T22:21:13.751Z,1.73
2022-08-08T22:23:50.362Z,1.65
2022-08-08T22:26:26.989Z,1.90
2022-08-08T22:29:13.226Z,1.80
2022-08-08T22:32:02.448Z,1.65
2022-08-08T22:34:32.365Z,2.35
2022-08-08T22:37:00.211Z,3.03
2022-08-08T22:39:39.263Z,3.22
2022-08-08T22:42:14.640Z,2.10
2022-08-08T22:44:55.057Z,2.47
2022-08-08T22:47:22.139Z,3.53
2022-08-08T22:49:53.958Z,2.47
2022-08-08T22:52:33.714Z,2.53
2022-08-08T22:55:04.737Z,2.53
2022-08-08T22:57:43.723Z,1.77
2022-08-08T23:00:16.624Z,2.08
2022-08-08T23:02:44.603Z,2.20
2022-08-08T23:05:17.643Z,1.92
2022-08-08T23:07:57.762Z,2.40
2022-08-08T23:10:26.851Z,2.47
2022-08-08T23:12:55.245Z,2.17
2022-08-08T23:16:39.188Z,1.90
2022-08-08T23:18:12.124Z,1.92
2022-08-08T23:20:41.182Z,1.80
2022-08-08T23:23:11.686Z,1.70
2022-08-08T23:25:48.551Z,1.83
2022-08-08T23:28:18.011Z,2.72
2022-08-08T23:30:47.234Z,3.00
2022-08-08T23:33:20.850Z,3.83
2022-08-08T23:36:08.425Z,2.65
2022-08-08T23:38:41.615Z,3.75
2022-08-08T23:41:23.131Z,2.63
2022-08-08T23:43:56.080Z,2.45
2022-08-08T23:49:03.211Z,2.40
2022-08-08T23:49:15.245Z,2.20
2022-08-08T23:52:06.573Z,1.80
2022-08-08T23:54:41.207Z,1.95
2022-08-08T23:57:26.760Z,1.58
2022-08-08T23:59:55.647Z,2.15
